Time;durP1;ratioP1;P1;durP2;ratioP2;P2;SDS_P1;SDS_P2;PMS_P1;PMS_P2;Temp;Humidity;BMP_temperature;BMP_pressure;BME280_temperature;BME280_humidity;BME280_pressure;Samples;Min_cycle;Max_cycle;Signal;HPM_P1;HPM_P2
2021/08/16 00:01:47;;;;;;;;;;;19.00;73.00;;;;;;494089;240;1467;-46
2021/08/16 00:03:49;;;;;;;;;;;18.90;73.00;;;;;;494074;240;1117;-46
2021/08/16 00:05:50;;;;;;;;;;;19.00;73.00;;;;;;494479;240;1105;-46
2021/08/16 00:07:51;;;;;;;;;;;19.00;73.00;;;;;;494488;240;2190;-46
2021/08/16 00:09:53;;;;;;;;;;;18.90;73.00;;;;;;494614;240;1083;-46
2021/08/16 00:11:54;;;;;;;;;;;18.90;73.00;;;;;;494570;240;1021;-46
2021/08/16 00:13:55;;;;;;;;;;;18.90;73.00;;;;;;494120;240;1043;-46
2021/08/16 00:15:57;;;;;;;;;;;18.90;73.00;;;;;;494488;240;1060;-46
2021/08/16 00:17:58;;;;;;;;;;;18.90;73.00;;;;;;494309;240;1039;-46
2021/08/16 00:20:00;;;;;;;;;;;19.00;73.00;;;;;;494249;240;1184;-46
2021/08/16 00:22:01;;;;;;;;;;;18.90;72.90;;;;;;494155;240;1220;-46
2021/08/16 00:24:02;;;;;;;;;;;19.00;73.00;;;;;;494363;240;1099;-46
2021/08/16 00:26:04;;;;;;;;;;;18.90;73.00;;;;;;494216;240;1104;-46
2021/08/16 00:28:05;;;;;;;;;;;18.90;73.00;;;;;;494052;240;2182;-46
2021/08/16 00:30:06;;;;;;;;;;;19.00;73.00;;;;;;494616;240;1077;-46
2021/08/16 00:32:08;;;;;;;;;;;18.90;73.00;;;;;;493987;240;1253;-46
2021/08/16 00:34:09;;;;;;;;;;;18.90;73.00;;;;;;494501;240;1167;-46
2021/08/16 00:36:10;;;;;;;;;;;19.00;73.00;;;;;;494387;240;1172;-46
2021/08/16 00:38:11;;;;;;;;;;;19.00;73.00;;;;;;494499;240;1186;-46
2021/08/16 00:40:13;;;;;;;;;;;18.90;72.90;;;;;;494545;240;1070;-46
2021/08/16 00:42:14;;;;;;;;;;;19.00;73.00;;;;;;494065;240;1252;-46
2021/08/16 00:44:15;;;;;;;;;;;18.90;73.00;;;;;;494083;240;1080;-46
2021/08/16 00:46:17;;;;;;;;;;;19.00;73.10;;;;;;494504;240;1090;-46
2021/08/16 00:48:18;;;;;;;;;;;19.00;73.10;;;;;;494493;240;2183;-46
2021/08/16 00:50:20;;;;;;;;;;;18.90;73.00;;;;;;494081;240;1205;-46
2021/08/16 00:52:21;;;;;;;;;;;19.00;73.00;;;;;;494309;240;1136;-46
2021/08/16 00:54:22;;;;;;;;;;;18.90;73.00;;;;;;494413;240;1199;-46
2021/08/16 00:56:26;;;;;;;;;;;18.90;73.00;;;;;;494480;240;1160;-46
2021/08/16 00:58:26;;;;;;;;;;;19.00;73.10;;;;;;493966;240;1686;-46
2021/08/16 01:00:28;;;;;;;;;;;18.90;73.10;;;;;;494549;240;1077;-46
2021/08/16 01:02:29;;;;;;;;;;;18.90;73.00;;;;;;494373;240;1173;-46
2021/08/16 01:04:30;;;;;;;;;;;18.90;73.00;;;;;;494473;240;1165;-46
2021/08/16 01:06:31;;;;;;;;;;;19.00;73.10;;;;;;494509;240;1217;-46
2021/08/16 01:08:33;;;;;;;;;;;18.90;73.00;;;;;;494284;240;2194;-46
2021/08/16 01:10:34;;;;;;;;;;;19.00;73.10;;;;;;494083;240;1056;-47
2021/08/16 01:12:35;;;;;;;;;;;18.90;73.00;;;;;;494187;240;1048;-46
2021/08/16 01:14:37;;;;;;;;;;;18.90;73.10;;;;;;494125;240;1078;-46
2021/08/16 01:16:38;;;;;;;;;;;18.90;73.10;;;;;;494392;240;1226;-46
2021/08/16 01:18:39;;;;;;;;;;;18.90;73.10;;;;;;494540;240;1055;-46
2021/08/16 01:20:41;;;;;;;;;;;18.90;73.10;;;;;;494222;240;1302;-46
2021/08/16 01:22:42;;;;;;;;;;;19.00;73.10;;;;;;493985;240;1284;-46
2021/08/16 01:24:43;;;;;;;;;;;18.90;73.10;;;;;;494553;240;1043;-46
2021/08/16 01:26:45;;;;;;;;;;;18.90;73.10;;;;;;494247;240;1194;-46
2021/08/16 01:28:46;;;;;;;;;;;18.90;73.00;;;;;;494430;240;2181;-46
2021/08/16 01:30:47;;;;;;;;;;;18.90;73.00;;;;;;494372;240;1192;-46
2021/08/16 01:32:49;;;;;;;;;;;19.00;73.00;;;;;;494001;240;1219;-46
2021/08/16 01:34:50;;;;;;;;;;;19.00;73.00;;;;;;494098;240;1238;-46
2021/08/16 01:36:51;;;;;;;;;;;19.00;73.00;;;;;;494527;240;1323;-46
2021/08/16 01:38:53;;;;;;;;;;;18.90;73.00;;;;;;494179;240;1199;-46
2021/08/16 01:40:54;;;;;;;;;;;18.90;73.00;;;;;;494478;240;1192;-46
2021/08/16 01:42:55;;;;;;;;;;;18.90;73.10;;;;;;494106;240;1053;-46
2021/08/16 01:44:57;;;;;;;;;;;18.90;73.10;;;;;;494105;240;1177;-46
2021/08/16 01:46:58;;;;;;;;;;;18.90;73.10;;;;;;494200;240;1157;-46
2021/08/16 01:48:59;;;;;;;;;;;18.90;73.00;;;;;;494113;240;2175;-45
2021/08/16 01:51:01;;;;;;;;;;;18.90;73.00;;;;;;494010;240;1307;-46
2021/08/16 01:53:02;;;;;;;;;;;19.00;73.10;;;;;;494298;240;1085;-46
2021/08/16 01:55:03;;;;;;;;;;;18.90;73.00;;;;;;494000;240;1136;-46
2021/08/16 01:57:04;;;;;;;;;;;19.00;73.10;;;;;;493970;240;1098;-46
2021/08/16 01:59:06;;;;;;;;;;;18.90;73.00;;;;;;494072;240;1065;-46
2021/08/16 02:01:07;;;;;;;;;;;19.00;73.10;;;;;;494074;240;1054;-46
2021/08/16 02:03:08;;;;;;;;;;;19.00;73.10;;;;;;494057;240;1408;-46
2021/08/16 02:05:10;;;;;;;;;;;18.90;73.10;;;;;;494229;240;1139;-46
2021/08/16 02:07:11;;;;;;;;;;;18.90;73.10;;;;;;494268;240;2140;-46
2021/08/16 02:09:12;;;;;;;;;;;18.90;73.10;;;;;;494454;240;1317;-46
2021/08/16 02:11:14;;;;;;;;;;;18.90;73.00;;;;;;494059;240;1140;-46
2021/08/16 02:13:15;;;;;;;;;;;18.90;73.00;;;;;;494255;240;1412;-46
2021/08/16 02:15:16;;;;;;;;;;;19.00;73.00;;;;;;494586;240;982;-46
2021/08/16 02:17:18;;;;;;;;;;;18.90;73.00;;;;;;494211;240;1313;-46
2021/08/16 02:19:19;;;;;;;;;;;18.90;73.10;;;;;;494089;240;1176;-46
2021/08/16 02:21:20;;;;;;;;;;;18.90;73.00;;;;;;494044;240;1202;-46
2021/08/16 02:23:22;;;;;;;;;;;18.90;73.00;;;;;;494081;240;1321;-46
2021/08/16 02:25:23;;;;;;;;;;;18.90;73.00;;;;;;494538;240;1103;-46
2021/08/16 02:27:24;;;;;;;;;;;18.90;73.00;;;;;;493966;240;2189;-46
2021/08/16 02:29:26;;;;;;;;;;;18.90;73.00;;;;;;494077;240;1046;-46
2021/08/16 02:31:27;;;;;;;;;;;18.90;73.00;;;;;;494552;240;1203;-46
2021/08/16 02:33:30;;;;;;;;;;;18.90;72.90;;;;;;494397;240;1084;-46
2021/08/16 02:35:31;;;;;;;;;;;18.90;73.00;;;;;;494481;240;1238;-46
2021/08/16 02:37:33;;;;;;;;;;;18.90;72.90;;;;;;494493;240;1290;-46
2021/08/16 02:39:34;;;;;;;;;;;18.90;72.90;;;;;;494035;240;1066;-46
2021/08/16 02:41:36;;;;;;;;;;;18.90;73.00;;;;;;494318;240;1049;-46
2021/08/16 02:43:36;;;;;;;;;;;18.90;73.00;;;;;;494000;241;1899;-46
2021/08/16 02:45:38;;;;;;;;;;;18.90;72.90;;;;;;494087;240;1036;-46
2021/08/16 02:47:39;;;;;;;;;;;18.90;72.90;;;;;;494075;240;2135;-46
2021/08/16 02:49:41;;;;;;;;;;;18.90;72.90;;;;;;494215;240;1055;-46
2021/08/16 02:51:42;;;;;;;;;;;19.00;73.00;;;;;;494095;240;1532;-46
2021/08/16 02:53:43;;;;;;;;;;;19.00;73.00;;;;;;494069;240;1225;-46
2021/08/16 02:55:44;;;;;;;;;;;18.90;72.90;;;;;;494516;240;1140;-46
2021/08/16 02:57:46;;;;;;;;;;;18.90;72.90;;;;;;494041;240;1200;-46
2021/08/16 02:59:47;;;;;;;;;;;19.00;73.00;;;;;;494034;240;1087;-46
2021/08/16 03:01:49;;;;;;;;;;;18.90;72.90;;;;;;494218;240;1432;-46
2021/08/16 03:03:50;;;;;;;;;;;19.00;72.90;;;;;;494185;240;1057;-46
2021/08/16 03:05:51;;;;;;;;;;;19.00;72.90;;;;;;494487;237;1319;-46
2021/08/16 03:07:53;;;;;;;;;;;18.90;72.90;;;;;;494046;240;2148;-46
2021/08/16 03:09:54;;;;;;;;;;;18.90;72.90;;;;;;494371;240;1103;-46
2021/08/16 03:11:55;;;;;;;;;;;19.00;72.90;;;;;;494476;240;1062;-46
2021/08/16 03:13:57;;;;;;;;;;;19.00;72.90;;;;;;494406;240;1214;-46
2021/08/16 03:15:58;;;;;;;;;;;18.90;72.80;;;;;;494442;240;1025;-46
2021/08/16 03:18:00;;;;;;;;;;;18.90;72.90;;;;;;494006;240;1142;-47
2021/08/16 03:20:01;;;;;;;;;;;18.90;72.90;;;;;;494462;240;1097;-46
2021/08/16 03:22:02;;;;;;;;;;;19.00;73.00;;;;;;494127;240;1204;-46
2021/08/16 03:24:03;;;;;;;;;;;19.00;72.90;;;;;;494531;240;1128;-46
2021/08/16 03:26:05;;;;;;;;;;;18.90;72.90;;;;;;494410;240;1078;-46
2021/08/16 03:28:06;;;;;;;;;;;18.90;73.00;;;;;;494107;240;2139;-46
2021/08/16 03:30:07;;;;;;;;;;;18.90;73.00;;;;;;494068;241;1028;-46
2021/08/16 03:32:09;;;;;;;;;;;18.90;72.90;;;;;;494499;240;1214;-46
2021/08/16 03:34:10;;;;;;;;;;;18.90;72.90;;;;;;494498;240;1049;-46
2021/08/16 03:36:11;;;;;;;;;;;18.90;72.80;;;;;;494047;240;1312;-46
2021/08/16 03:38:13;;;;;;;;;;;18.90;72.80;;;;;;494575;240;1038;-46
2021/08/16 03:40:14;;;;;;;;;;;19.00;72.80;;;;;;494297;240;1039;-46
2021/08/16 03:42:15;;;;;;;;;;;18.90;72.80;;;;;;493956;240;1065;-46
2021/08/16 03:44:17;;;;;;;;;;;18.90;72.90;;;;;;494484;240;1095;-46
2021/08/16 03:46:18;;;;;;;;;;;18.90;72.80;;;;;;494492;240;1057;-46
2021/08/16 03:48:20;;;;;;;;;;;18.90;72.80;;;;;;494063;240;2190;-46
2021/08/16 03:50:21;;;;;;;;;;;18.90;72.80;;;;;;494526;240;1014;-46
2021/08/16 03:52:22;;;;;;;;;;;18.90;72.80;;;;;;494205;240;1265;-46
2021/08/16 03:54:24;;;;;;;;;;;18.90;72.90;;;;;;494060;240;1106;-46
2021/08/16 03:56:25;;;;;;;;;;;18.90;72.80;;;;;;494474;240;1142;-46
2021/08/16 03:58:26;;;;;;;;;;;18.90;72.80;;;;;;494467;240;1037;-46
2021/08/16 04:00:28;;;;;;;;;;;19.00;72.90;;;;;;494081;240;1055;-46
2021/08/16 04:02:29;;;;;;;;;;;18.90;72.80;;;;;;494393;240;1424;-46
2021/08/16 04:04:30;;;;;;;;;;;18.90;72.90;;;;;;494285;240;1093;-46
2021/08/16 04:06:32;;;;;;;;;;;18.90;72.90;;;;;;494471;240;1320;-46
2021/08/16 04:08:33;;;;;;;;;;;18.90;72.80;;;;;;494523;240;2136;-46
2021/08/16 04:10:34;;;;;;;;;;;18.90;72.80;;;;;;494526;240;1080;-46
2021/08/16 04:12:36;;;;;;;;;;;18.90;72.80;;;;;;494504;240;1331;-46
2021/08/16 04:14:37;;;;;;;;;;;18.90;72.90;;;;;;494189;240;1086;-46
2021/08/16 04:16:38;;;;;;;;;;;18.90;72.90;;;;;;493927;240;1297;-46
2021/08/16 04:18:40;;;;;;;;;;;18.90;72.90;;;;;;494252;240;1069;-46
2021/08/16 04:20:41;;;;;;;;;;;18.90;72.90;;;;;;494277;240;1016;-46
2021/08/16 04:22:42;;;;;;;;;;;18.90;72.80;;;;;;494261;240;1210;-46
2021/08/16 04:24:44;;;;;;;;;;;18.90;72.90;;;;;;494064;240;1084;-46
2021/08/16 04:26:45;;;;;;;;;;;18.90;72.90;;;;;;494006;240;1364;-46
2021/08/16 04:28:46;;;;;;;;;;;18.90;72.90;;;;;;494041;240;2206;-46
2021/08/16 04:30:48;;;;;;;;;;;18.90;72.80;;;;;;493986;240;1058;-46
2021/08/16 04:32:49;;;;;;;;;;;19.00;72.70;;;;;;494015;240;1296;-46
2021/08/16 04:34:51;;;;;;;;;;;18.90;72.70;;;;;;494273;240;1120;-46
2021/08/16 04:36:52;;;;;;;;;;;18.90;72.90;;;;;;493998;240;1462;-46
2021/08/16 04:38:53;;;;;;;;;;;18.90;72.90;;;;;;494091;240;1058;-46
2021/08/16 04:40:55;;;;;;;;;;;18.90;72.90;;;;;;494023;240;1061;-46
2021/08/16 04:42:56;;;;;;;;;;;18.90;72.90;;;;;;494031;240;1063;-46
2021/08/16 04:44:57;;;;;;;;;;;18.90;73.00;;;;;;494140;240;1211;-46
2021/08/16 04:46:58;;;;;;;;;;;18.90;72.80;;;;;;494005;240;1014;-46
2021/08/16 04:49:00;;;;;;;;;;;18.90;72.80;;;;;;494261;240;2207;-46
2021/08/16 04:51:01;;;;;;;;;;;18.90;72.70;;;;;;494155;240;1110;-46
2021/08/16 04:53:02;;;;;;;;;;;18.90;72.80;;;;;;493972;240;1256;-46
2021/08/16 04:55:04;;;;;;;;;;;18.90;72.90;;;;;;494429;240;1060;-46
2021/08/16 04:57:05;;;;;;;;;;;18.90;72.80;;;;;;494197;240;1061;-46
2021/08/16 04:59:06;;;;;;;;;;;18.90;72.80;;;;;;494136;240;1077;-46
2021/08/16 05:01:08;;;;;;;;;;;18.90;72.90;;;;;;493862;240;1030;-46
2021/08/16 05:03:09;;;;;;;;;;;18.90;72.90;;;;;;493886;240;1108;-46
2021/08/16 05:05:11;;;;;;;;;;;18.90;72.90;;;;;;493903;240;1087;-46
2021/08/16 05:07:12;;;;;;;;;;;18.90;72.90;;;;;;493889;240;1982;-46
2021/08/16 05:09:13;;;;;;;;;;;18.90;72.90;;;;;;493976;240;2190;-46
2021/08/16 05:11:14;;;;;;;;;;;18.90;72.90;;;;;;493868;240;1052;-46
2021/08/16 05:13:16;;;;;;;;;;;18.90;72.90;;;;;;494028;240;1042;-46
2021/08/16 05:15:17;;;;;;;;;;;18.90;72.90;;;;;;493869;240;1050;-46
2021/08/16 05:17:18;;;;;;;;;;;18.90;72.80;;;;;;494047;240;1177;-46
2021/08/16 05:19:20;;;;;;;;;;;18.90;72.80;;;;;;493992;240;1195;-46
2021/08/16 05:21:21;;;;;;;;;;;18.90;72.80;;;;;;493938;240;1294;-46
2021/08/16 05:23:22;;;;;;;;;;;18.90;72.80;;;;;;493910;240;1216;-46
2021/08/16 05:25:24;;;;;;;;;;;19.00;72.80;;;;;;493995;240;1092;-46
2021/08/16 05:27:25;;;;;;;;;;;18.90;72.90;;;;;;493787;240;1329;-46
2021/08/16 05:29:26;;;;;;;;;;;18.90;72.90;;;;;;493868;240;2179;-46
2021/08/16 05:31:28;;;;;;;;;;;18.90;73.00;;;;;;493828;240;1149;-46
2021/08/16 05:33:29;;;;;;;;;;;18.90;72.90;;;;;;493894;240;1257;-46
2021/08/16 05:35:30;;;;;;;;;;;18.90;72.90;;;;;;493923;240;1343;-46
2021/08/16 05:37:31;;;;;;;;;;;18.90;72.90;;;;;;493679;241;1354;-46
2021/08/16 05:39:33;;;;;;;;;;;18.90;72.90;;;;;;493823;240;1162;-46
2021/08/16 05:41:34;;;;;;;;;;;18.90;72.90;;;;;;493905;240;1290;-46
2021/08/16 05:43:36;;;;;;;;;;;18.90;72.90;;;;;;493900;240;1082;-46
2021/08/16 05:45:37;;;;;;;;;;;18.90;72.90;;;;;;494023;240;1043;-46
2021/08/16 05:47:38;;;;;;;;;;;18.90;72.80;;;;;;494021;240;1296;-46
2021/08/16 05:49:40;;;;;;;;;;;18.90;73.00;;;;;;493879;240;2187;-46
2021/08/16 05:51:41;;;;;;;;;;;18.90;73.00;;;;;;493738;240;1366;-46
2021/08/16 05:53:42;;;;;;;;;;;18.90;73.00;;;;;;493762;240;1186;-46
2021/08/16 05:55:45;;;;;;;;;;;18.90;72.90;;;;;;493834;240;1079;-46
2021/08/16 05:57:46;;;;;;;;;;;18.90;72.90;;;;;;493861;240;1169;-46
2021/08/16 05:59:47;;;;;;;;;;;18.90;72.90;;;;;;494010;240;1041;-46
2021/08/16 06:01:49;;;;;;;;;;;18.90;72.90;;;;;;493976;240;1219;-46
2021/08/16 06:03:50;;;;;;;;;;;18.90;73.00;;;;;;493803;241;1054;-46
2021/08/16 06:05:51;;;;;;;;;;;18.90;73.00;;;;;;493982;240;1289;-46
2021/08/16 06:07:53;;;;;;;;;;;18.90;72.90;;;;;;493730;240;1180;-46
2021/08/16 06:09:54;;;;;;;;;;;18.90;72.90;;;;;;493851;240;2194;-46
2021/08/16 06:11:55;;;;;;;;;;;18.90;72.80;;;;;;493779;240;1289;-46
2021/08/16 06:13:57;;;;;;;;;;;18.90;72.90;;;;;;493754;240;1070;-46
2021/08/16 06:15:58;;;;;;;;;;;18.90;72.90;;;;;;493732;240;1688;-46
2021/08/16 06:17:59;;;;;;;;;;;18.90;72.90;;;;;;493908;240;1197;-46
2021/08/16 06:20:00;;;;;;;;;;;18.80;72.90;;;;;;493908;240;1074;-46
2021/08/16 06:22:02;;;;;;;;;;;18.90;73.00;;;;;;493743;240;1616;-46
2021/08/16 06:24:03;;;;;;;;;;;18.80;72.90;;;;;;493940;240;1212;-46
2021/08/16 06:26:04;;;;;;;;;;;18.80;72.90;;;;;;493653;240;1472;-46
2021/08/16 06:28:06;;;;;;;;;;;18.80;72.90;;;;;;493900;240;1094;-46
2021/08/16 06:30:07;;;;;;;;;;;18.80;72.90;;;;;;493794;240;2194;-46
2021/08/16 06:32:08;;;;;;;;;;;18.80;72.90;;;;;;493497;240;1626;-46
2021/08/16 06:34:11;;;;;;;;;;;18.80;72.90;;;;;;493830;240;1084;-46
2021/08/16 06:36:11;;;;;;;;;;;18.80;72.90;;;;;;493556;241;1840;-46
2021/08/16 06:38:21;;;;;;;;;;;18.80;72.90;;;;;;493662;240;1119;-46
2021/08/16 06:40:14;;;;;;;;;;;18.80;72.80;;;;;;493092;241;1740;-46
2021/08/16 06:42:16;;;;;;;;;;;18.80;72.70;;;;;;493591;240;1413;-46
2021/08/16 06:44:17;;;;;;;;;;;18.80;72.80;;;;;;493619;240;1108;-46
2021/08/16 06:46:18;;;;;;;;;;;18.80;72.70;;;;;;493628;240;1448;-46
2021/08/16 06:48:20;;;;;;;;;;;18.80;72.70;;;;;;493567;240;1091;-46
2021/08/16 06:50:21;;;;;;;;;;;18.80;72.70;;;;;;493753;240;2132;-46
2021/08/16 06:52:22;;;;;;;;;;;18.80;72.80;;;;;;493706;240;1186;-46
2021/08/16 06:54:24;;;;;;;;;;;18.80;72.70;;;;;;493713;240;1131;-46
2021/08/16 06:56:25;;;;;;;;;;;18.80;72.70;;;;;;493355;240;1480;-46
2021/08/16 06:58:26;;;;;;;;;;;18.80;72.60;;;;;;493579;240;1086;-46
2021/08/16 07:00:28;;;;;;;;;;;18.80;72.60;;;;;;493593;240;1066;-46
2021/08/16 07:02:29;;;;;;;;;;;18.80;72.60;;;;;;493379;240;1258;-46
2021/08/16 07:04:30;;;;;;;;;;;18.80;72.70;;;;;;493451;240;1381;-46
2021/08/16 07:06:32;;;;;;;;;;;18.80;72.70;;;;;;493728;240;1157;-46
2021/08/16 07:08:33;;;;;;;;;;;18.80;72.60;;;;;;493614;240;1144;-46
2021/08/16 07:10:34;;;;;;;;;;;18.80;72.60;;;;;;493539;240;2164;-46
2021/08/16 07:12:36;;;;;;;;;;;18.80;72.60;;;;;;493640;240;1163;-46
2021/08/16 07:14:37;;;;;;;;;;;18.80;72.60;;;;;;493812;240;1114;-46
2021/08/16 07:16:38;;;;;;;;;;;18.80;72.60;;;;;;493609;240;1077;-46
2021/08/16 07:18:40;;;;;;;;;;;18.80;72.50;;;;;;493633;240;1174;-46
2021/08/16 07:20:41;;;;;;;;;;;18.80;72.40;;;;;;493514;240;1307;-46
2021/08/16 07:22:42;;;;;;;;;;;18.80;72.40;;;;;;493468;240;1219;-46
2021/08/16 07:24:44;;;;;;;;;;;18.80;72.40;;;;;;493542;240;1161;-46
2021/08/16 07:26:45;;;;;;;;;;;18.80;72.40;;;;;;493347;240;1717;-46
2021/08/16 07:28:48;;;;;;;;;;;18.80;72.50;;;;;;493378;240;1168;-46
2021/08/16 07:30:48;;;;;;;;;;;18.80;72.60;;;;;;493286;241;2212;-45
2021/08/16 07:32:49;;;;;;;;;;;18.80;72.50;;;;;;493141;240;1208;-46
2021/08/16 07:34:51;;;;;;;;;;;18.80;72.50;;;;;;493230;240;1088;-47
2021/08/16 07:36:54;;;;;;;;;;;18.80;72.50;;;;;;493332;240;1233;-46
2021/08/16 07:38:53;;;;;;;;;;;18.80;72.40;;;;;;493435;241;1705;-46
2021/08/16 07:40:55;;;;;;;;;;;18.80;72.40;;;;;;493395;240;1094;-46
2021/08/16 07:42:56;;;;;;;;;;;18.80;72.40;;;;;;493369;240;1139;-46
2021/08/16 07:44:57;;;;;;;;;;;18.80;72.30;;;;;;493475;240;1075;-46
2021/08/16 07:46:59;;;;;;;;;;;18.80;72.40;;;;;;493361;240;1116;-46
2021/08/16 07:49:00;;;;;;;;;;;18.80;72.50;;;;;;493469;240;2258;-46
2021/08/16 07:51:01;;;;;;;;;;;18.80;72.50;;;;;;493434;240;2182;-46
2021/08/16 07:53:03;;;;;;;;;;;18.70;72.40;;;;;;493430;240;1100;-46
2021/08/16 07:55:04;;;;;;;;;;;18.80;72.50;;;;;;493337;240;1399;-46
2021/08/16 07:57:05;;;;;;;;;;;18.80;72.50;;;;;;493110;240;1115;-46
2021/08/16 07:59:07;;;;;;;;;;;18.80;72.50;;;;;;493284;240;1124;-46
2021/08/16 08:01:08;;;;;;;;;;;18.80;72.40;;;;;;493360;240;1121;-46
2021/08/16 08:03:09;;;;;;;;;;;18.80;72.40;;;;;;493230;240;1197;-46
2021/08/16 08:05:11;;;;;;;;;;;18.80;72.30;;;;;;493333;240;1044;-46
2021/08/16 08:07:12;;;;;;;;;;;18.80;72.30;;;;;;493117;240;1201;-46
2021/08/16 08:09:13;;;;;;;;;;;18.80;72.30;;;;;;493394;240;1191;-46
2021/08/16 08:11:15;;;;;;;;;;;18.80;72.40;;;;;;493107;239;2294;-46
2021/08/16 08:13:16;;;;;;;;;;;18.80;72.40;;;;;;493279;240;1222;-46
2021/08/16 08:15:17;;;;;;;;;;;18.80;72.40;;;;;;493248;240;1092;-46
2021/08/16 08:17:20;;;;;;;;;;;18.70;72.40;;;;;;493236;240;1113;-46
2021/08/16 08:19:21;;;;;;;;;;;18.80;72.30;;;;;;493683;240;1086;-46
2021/08/16 08:21:23;;;;;;;;;;;18.80;72.30;;;;;;493211;240;1229;-46
2021/08/16 08:23:24;;;;;;;;;;;18.80;72.40;;;;;;493254;240;1083;-46
2021/08/16 08:25:25;;;;;;;;;;;18.80;72.30;;;;;;493340;240;1158;-46
2021/08/16 08:27:27;;;;;;;;;;;18.80;72.30;;;;;;493137;240;1113;-46
2021/08/16 08:29:28;;;;;;;;;;;18.80;72.30;;;;;;493211;240;2198;-46
2021/08/16 08:31:29;;;;;;;;;;;18.80;72.40;;;;;;493163;240;1153;-46
2021/08/16 08:33:31;;;;;;;;;;;18.70;72.30;;;;;;493857;240;801;-46
2021/08/16 08:35:32;;;;;;;;;;;18.80;72.40;;;;;;493419;240;1481;-47
2021/08/16 08:37:33;;;;;;;;;;;18.80;72.30;;;;;;493264;240;1031;-46
2021/08/16 08:39:35;;;;;;;;;;;18.80;72.40;;;;;;493258;240;1114;-46
2021/08/16 08:41:36;;;;;;;;;;;18.80;72.30;;;;;;492520;240;1222;-46
2021/08/16 08:43:37;;;;;;;;;;;18.80;72.30;;;;;;492716;240;1004;-46
2021/08/16 08:45:39;;;;;;;;;;;18.80;72.30;;;;;;493159;240;1018;-45
2021/08/16 08:47:40;;;;;;;;;;;18.80;72.30;;;;;;493134;240;1290;-46
2021/08/16 08:49:41;;;;;;;;;;;18.80;72.30;;;;;;493678;240;2198;-46
2021/08/16 08:51:43;;;;;;;;;;;18.80;72.30;;;;;;493082;240;1280;-46
2021/08/16 08:53:44;;;;;;;;;;;18.80;72.20;;;;;;493094;240;1261;-46
2021/08/16 08:55:45;;;;;;;;;;;18.80;72.20;;;;;;493172;240;1529;-46
2021/08/16 08:57:47;;;;;;;;;;;18.80;72.30;;;;;;492887;240;1281;-46
2021/08/16 08:59:48;;;;;;;;;;;18.80;72.30;;;;;;493343;240;816;-46
2021/08/16 09:01:49;;;;;;;;;;;18.80;72.30;;;;;;492868;240;1356;-46
2021/08/16 09:03:51;;;;;;;;;;;18.80;72.20;;;;;;493584;240;1043;-46
2021/08/16 09:05:52;;;;;;;;;;;18.80;72.30;;;;;;493498;240;1228;-46
2021/08/16 09:07:55;;;;;;;;;;;18.80;72.30;;;;;;493417;240;746;-46
2021/08/16 09:09:55;;;;;;;;;;;18.80;72.20;;;;;;493004;241;2207;-46
2021/08/16 09:11:57;;;;;;;;;;;18.80;72.30;;;;;;492800;241;1961;-46
2021/08/16 09:13:58;;;;;;;;;;;18.80;72.30;;;;;;493447;240;829;-46
2021/08/16 09:15:59;;;;;;;;;;;18.80;72.30;;;;;;493425;240;1437;-47
2021/08/16 09:18:01;;;;;;;;;;;18.80;72.30;;;;;;493338;240;956;-46
2021/08/16 09:20:02;;;;;;;;;;;18.80;72.30;;;;;;493020;240;784;-46
2021/08/16 09:22:06;;;;;;;;;;;19.20;71.10;;;;;;493401;240;1184;-46
2021/08/16 09:24:05;;;;;;;;;;;19.40;69.90;;;;;;492901;241;1464;-46
2021/08/16 09:26:06;;;;;;;;;;;19.60;69.00;;;;;;493287;240;1244;-46
2021/08/16 09:28:07;;;;;;;;;;;19.90;68.40;;;;;;493402;240;1119;-46
2021/08/16 09:30:09;;;;;;;;;;;20.00;67.70;;;;;;493443;240;2202;-46
2021/08/16 09:32:10;;;;;;;;;;;20.10;67.40;;;;;;492221;240;1001;-47
2021/08/16 09:34:11;;;;;;;;;;;20.20;67.20;;;;;;493437;240;1081;-46
2021/08/16 09:36:13;;;;;;;;;;;20.30;66.90;;;;;;492977;240;1511;-46
2021/08/16 09:38:14;;;;;;;;;;;20.30;66.60;;;;;;492989;240;1037;-47
2021/08/16 09:40:15;;;;;;;;;;;20.40;66.30;;;;;;493492;240;781;-46
2021/08/16 09:42:17;;;;;;;;;;;20.50;66.10;;;;;;492861;240;1368;-46
2021/08/16 09:44:18;;;;;;;;;;;20.50;65.90;;;;;;493548;240;618;-47
2021/08/16 09:46:19;;;;;;;;;;;20.60;65.70;;;;;;493023;240;1294;-46
2021/08/16 09:48:21;;;;;;;;;;;20.60;65.70;;;;;;493010;240;1074;-46
2021/08/16 09:50:22;;;;;;;;;;;20.60;65.60;;;;;;493718;240;2195;-47
2021/08/16 09:52:23;;;;;;;;;;;20.60;65.60;;;;;;493233;240;1206;-46
2021/08/16 09:54:25;;;;;;;;;;;20.70;65.60;;;;;;493288;240;1117;-46
2021/08/16 09:56:26;;;;;;;;;;;20.70;65.50;;;;;;493246;240;1429;-46
2021/08/16 09:58:27;;;;;;;;;;;20.70;65.40;;;;;;493389;240;1095;-47
2021/08/16 10:00:29;;;;;;;;;;;20.80;65.40;;;;;;493254;240;1444;-46
2021/08/16 10:02:30;;;;;;;;;;;20.80;65.30;;;;;;493190;240;1336;-46
2021/08/16 10:04:32;;;;;;;;;;;20.80;65.20;;;;;;493347;240;1094;-46
2021/08/16 10:06:33;;;;;;;;;;;20.80;65.10;;;;;;493310;240;1117;-46
2021/08/16 10:08:34;;;;;;;;;;;20.80;65.10;;;;;;493299;240;1607;-46
2021/08/16 10:10:36;;;;;;;;;;;20.90;65.10;;;;;;493339;240;2171;-46
2021/08/16 10:12:37;;;;;;;;;;;20.90;65.10;;;;;;493268;240;1189;-46
2021/08/16 10:14:38;;;;;;;;;;;20.90;65.00;;;;;;493368;240;1228;-47
2021/08/16 10:16:40;;;;;;;;;;;20.90;64.90;;;;;;493275;240;1178;-46
2021/08/16 10:18:41;;;;;;;;;;;21.00;64.90;;;;;;493208;240;1195;-46
2021/08/16 10:20:42;;;;;;;;;;;21.00;64.80;;;;;;493206;240;1123;-46
2021/08/16 10:22:44;;;;;;;;;;;21.00;64.80;;;;;;492932;240;1406;-46
2021/08/16 10:24:45;;;;;;;;;;;21.00;64.70;;;;;;493086;240;1174;-46
2021/08/16 10:26:47;;;;;;;;;;;21.00;64.70;;;;;;493004;237;1294;-46
2021/08/16 10:28:48;;;;;;;;;;;21.10;64.70;;;;;;493203;240;1169;-47
2021/08/16 10:30:49;;;;;;;;;;;21.10;64.70;;;;;;493061;240;2171;-46
2021/08/16 10:32:51;;;;;;;;;;;21.10;64.70;;;;;;493049;241;1066;-46
2021/08/16 10:34:52;;;;;;;;;;;21.10;64.60;;;;;;492889;240;1100;-46
2021/08/16 10:36:53;;;;;;;;;;;21.10;64.50;;;;;;492765;240;1508;-46
2021/08/16 10:38:54;;;;;;;;;;;21.20;64.50;;;;;;492817;240;1082;-47
2021/08/16 10:40:56;;;;;;;;;;;21.20;64.50;;;;;;492786;240;1096;-46
2021/08/16 10:42:58;;;;;;;;;;;21.20;64.50;;;;;;492902;240;1275;-46
2021/08/16 10:45:02;;;;;;;;;;;21.20;64.30;;;;;;493040;240;1100;-47
2021/08/16 10:47:00;;;;;;;;;;;21.20;64.30;;;;;;492746;241;2106;-47
2021/08/16 10:49:02;;;;;;;;;;;21.30;64.30;;;;;;493071;240;1049;-47
2021/08/16 10:51:03;;;;;;;;;;;21.20;64.30;;;;;;493086;240;2186;-46
2021/08/16 10:53:05;;;;;;;;;;;21.20;64.30;;;;;;492955;240;1095;-46
2021/08/16 10:55:06;;;;;;;;;;;21.20;64.30;;;;;;493130;240;1157;-46
2021/08/16 10:57:07;;;;;;;;;;;21.30;64.20;;;;;;492706;240;1191;-47
2021/08/16 10:59:09;;;;;;;;;;;21.30;64.20;;;;;;492833;240;1203;-46
2021/08/16 11:01:10;;;;;;;;;;;21.30;64.30;;;;;;492839;240;1276;-46
2021/08/16 11:03:13;;;;;;;;;;;21.40;64.20;;;;;;492798;240;1130;-46
2021/08/16 11:05:14;;;;;;;;;;;21.40;64.20;;;;;;492733;241;2312;-46
2021/08/16 11:07:14;;;;;;;;;;;21.40;64.10;;;;;;492724;241;1298;-47
2021/08/16 11:09:15;;;;;;;;;;;21.40;64.20;;;;;;493059;240;1110;-47
2021/08/16 11:11:16;;;;;;;;;;;21.40;64.10;;;;;;492925;240;2183;-46
2021/08/16 11:13:18;;;;;;;;;;;21.40;64.00;;;;;;492927;240;1317;-46
2021/08/16 11:15:19;;;;;;;;;;;21.40;64.00;;;;;;492997;240;1074;-46
2021/08/16 11:17:21;;;;;;;;;;;21.40;64.00;;;;;;493028;240;1115;-46
2021/08/16 11:19:22;;;;;;;;;;;21.50;64.10;;;;;;492979;240;1055;-47
2021/08/16 11:21:25;;;;;;;;;;;21.50;64.00;;;;;;492995;240;1091;-47
2021/08/16 11:23:25;;;;;;;;;;;21.50;64.10;;;;;;492891;241;2272;-47
2021/08/16 11:25:26;;;;;;;;;;;21.40;64.00;;;;;;493117;240;1095;-46
2021/08/16 11:27:27;;;;;;;;;;;21.50;63.90;;;;;;493136;240;1171;-47
2021/08/16 11:29:29;;;;;;;;;;;21.50;64.00;;;;;;493168;240;1088;-46
2021/08/16 11:31:30;;;;;;;;;;;21.50;64.00;;;;;;493014;240;2182;-46
2021/08/16 11:33:32;;;;;;;;;;;21.50;64.00;;;;;;493027;240;1080;-46
2021/08/16 11:35:33;;;;;;;;;;;21.50;63.90;;;;;;493156;240;1069;-46
2021/08/16 11:37:34;;;;;;;;;;;21.60;63.90;;;;;;492778;240;1105;-46
2021/08/16 11:39:36;;;;;;;;;;;21.60;63.90;;;;;;493021;240;1060;-46
2021/08/16 11:41:37;;;;;;;;;;;21.60;63.90;;;;;;492847;240;1389;-46
2021/08/16 11:43:39;;;;;;;;;;;21.50;64.60;;;;;;492975;240;1171;-46
2021/08/16 11:45:40;;;;;;;;;;;21.50;64.80;;;;;;492993;240;1086;-46
2021/08/16 11:47:43;;;;;;;;;;;21.30;65.40;;;;;;492989;240;1218;-46
2021/08/16 11:49:43;;;;;;;;;;;21.00;66.70;;;;;;492917;240;2159;-46
2021/08/16 11:51:44;;;;;;;;;;;20.70;68.00;;;;;;492886;240;2186;-46
2021/08/16 11:53:45;;;;;;;;;;;20.50;68.80;;;;;;492969;240;1236;-46
2021/08/16 11:55:47;;;;;;;;;;;20.30;69.30;;;;;;492995;241;1243;-46
2021/08/16 11:57:48;;;;;;;;;;;20.20;69.80;;;;;;493054;240;1252;-46